createdAt,value
2022-11-04T00:01:40.421Z,16.00
2022-11-04T00:04:08.349Z,14.13
2022-11-04T00:06:38.498Z,15.33
2022-11-04T00:09:08.644Z,15.93
2022-11-04T00:11:55.647Z,17.10
2022-11-04T00:14:23.532Z,15.07
2022-11-04T00:17:08.960Z,15.97
2022-11-04T00:19:50.698Z,17.57
2022-11-04T00:22:37.485Z,15.73
2022-11-04T00:25:23.843Z,16.53
2022-11-04T00:28:09.533Z,14.47
2022-11-04T00:30:37.684Z,15.43
2022-11-04T00:33:22.748Z,14.13
2022-11-04T00:35:50.780Z,13.70
2022-11-04T00:38:20.118Z,13.43
2022-11-04T00:40:48.006Z,15.23
2022-11-04T00:43:15.842Z,14.30
2022-11-04T00:45:43.853Z,16.27
2022-11-04T00:48:12.391Z,18.73
2022-11-04T00:50:40.470Z,28.57
2022-11-04T00:53:08.592Z,24.27
2022-11-04T00:55:38.036Z,25.60
2022-11-04T00:58:05.925Z,26.13
2022-11-04T01:00:33.759Z,29.33
2022-11-04T01:03:02.411Z,22.37
2022-11-04T01:05:30.298Z,18.83
2022-11-04T01:07:58.324Z,15.73
2022-11-04T01:10:26.158Z,15.63
2022-11-04T01:12:55.390Z,14.13
2022-11-04T01:15:23.227Z,15.57
2022-11-04T01:17:51.364Z,15.53
2022-11-04T01:20:20.191Z,15.00
2022-11-04T01:22:48.016Z,14.77
2022-11-04T01:25:16.074Z,15.80
2022-11-04T01:27:43.910Z,14.60
2022-11-04T01:30:14.146Z,16.83
2022-11-04T01:32:42.025Z,16.90
2022-11-04T01:35:10.236Z,16.83
2022-11-04T01:37:38.074Z,15.03
2022-11-04T01:40:06.871Z,15.97
2022-11-04T01:42:34.678Z,17.20
2022-11-04T01:45:02.581Z,15.97
2022-11-04T01:47:38.236Z,16.70
2022-11-04T01:50:09.703Z,16.73
2022-11-04T01:52:44.727Z,15.47
2022-11-04T01:55:17.266Z,15.77
2022-11-04T01:57:48.765Z,16.70
2022-11-04T02:00:17.458Z,17.20
2022-11-04T02:02:55.824Z,17.90
2022-11-04T02:05:24.305Z,17.13
2022-11-04T02:07:57.909Z,15.93
2022-11-04T02:10:29.068Z,19.43
2022-11-04T02:12:58.337Z,17.90
2022-11-04T02:15:36.564Z,20.10
2022-11-04T02:18:29.777Z,16.97
2022-11-04T02:21:45.219Z,19.27
2022-11-04T02:24:51.845Z,16.30
2022-11-04T02:27:32.185Z,19.87
2022-11-04T02:30:14.319Z,20.40
2022-11-04T02:32:57.507Z,19.67
2022-11-04T02:35:31.135Z,20.70
2022-11-04T02:38:11.275Z,17.10
2022-11-04T02:40:44.382Z,21.93
2022-11-04T02:43:22.782Z,16.73
2022-11-04T02:45:56.754Z,17.60
2022-11-04T02:48:30.046Z,18.87
2022-11-04T02:51:06.259Z,17.23
2022-11-04T02:53:42.355Z,20.53
2022-11-04T02:56:13.414Z,18.93
2022-11-04T02:58:45.683Z,25.03
2022-11-04T03:01:18.765Z,19.67
2022-11-04T03:03:50.353Z,17.83
2022-11-04T03:06:23.184Z,19.90
2022-11-04T03:08:53.608Z,18.23
2022-11-04T03:11:24.526Z,21.43
2022-11-04T03:13:58.796Z,20.93
2022-11-04T03:16:34.929Z,20.20
2022-11-04T03:19:08.648Z,26.07
2022-11-04T03:21:40.202Z,20.43
2022-11-04T03:24:08.446Z,22.97
2022-11-04T03:26:42.678Z,22.13
2022-11-04T03:29:23.210Z,25.93
2022-11-04T03:32:04.543Z,24.40
2022-11-04T03:34:32.551Z,21.07
2022-11-04T03:37:00.995Z,20.30
2022-11-04T03:39:29.026Z,20.77
2022-11-04T03:41:58.971Z,22.93
2022-11-04T03:44:27.499Z,21.97
2022-11-04T03:46:56.778Z,22.60
2022-11-04T03:49:25.935Z,21.63
2022-11-04T03:51:53.905Z,21.50
2022-11-04T03:54:22.158Z,21.90
2022-11-04T03:57:19.191Z,21.90
2022-11-04T04:00:08.936Z,22.80
2022-11-04T04:02:49.069Z,23.23
2022-11-04T04:05:23.123Z,25.50
2022-11-04T04:07:55.905Z,21.43
2022-11-04T04:10:40.288Z,24.10
2022-11-04T04:13:25.134Z,21.40
2022-11-04T04:15:58.570Z,24.00
2022-11-04T04:18:34.164Z,23.23
2022-11-04T04:21:07.099Z,24.63
2022-11-04T04:23:54.162Z,23.20
2022-11-04T04:26:41.523Z,24.27
2022-11-04T04:29:11.214Z,24.63
2022-11-04T04:31:57.627Z,26.10
2022-11-04T04:34:28.849Z,24.83
2022-11-04T04:37:02.313Z,25.03
2022-11-04T04:39:53.862Z,24.07
2022-11-04T04:42:39.737Z,23.53
2022-11-04T04:45:09.204Z,25.17
2022-11-04T04:47:44.256Z,24.70
2022-11-04T04:50:16.234Z,22.57
2022-11-04T04:52:46.483Z,24.60
2022-11-04T04:55:15.474Z,24.00
2022-11-04T04:57:43.910Z,24.03
2022-11-04T05:00:15.038Z,23.10
2022-11-04T05:02:43.226Z,26.63
2022-11-04T05:05:11.856Z,24.23
2022-11-04T05:07:41.379Z,23.17
2022-11-04T05:10:10.838Z,28.60
2022-11-04T05:12:57.345Z,26.40
2022-11-04T05:15:25.234Z,33.07
2022-11-04T05:17:55.937Z,30.60
2022-11-04T05:20:24.517Z,26.17
2022-11-04T05:22:55.078Z,29.23
2022-11-04T05:25:22.961Z,23.93
2022-11-04T05:27:50.790Z,24.90
2022-11-04T05:30:18.961Z,26.43
2022-11-04T05:32:46.842Z,25.33
2022-11-04T05:35:14.779Z,24.27
2022-11-04T05:37:42.618Z,25.83
2022-11-04T05:40:13.218Z,32.37
2022-11-04T05:42:41.337Z,31.60
2022-11-04T05:45:10.175Z,23.93
2022-11-04T05:47:38.117Z,26.73
2022-11-04T05:50:06.870Z,25.43
2022-11-04T05:52:34.913Z,24.93
2022-11-04T05:55:02.825Z,22.90
2022-11-04T05:57:32.042Z,24.93
2022-11-04T05:59:59.911Z,23.83
2022-11-04T06:02:27.825Z,24.17
2022-11-04T06:04:55.740Z,21.73
2022-11-04T06:07:23.695Z,27.40
2022-11-04T06:09:51.580Z,21.43
2022-11-04T06:12:19.634Z,25.53
2022-11-04T06:14:49.361Z,24.90
2022-11-04T06:17:18.942Z,27.10
2022-11-04T06:19:47.341Z,26.00
2022-11-04T06:22:16.871Z,29.87
2022-11-04T06:24:45.250Z,27.40
2022-11-04T06:27:14.167Z,23.90
2022-11-04T06:29:42.179Z,25.03
2022-11-04T06:32:13.338Z,25.83
2022-11-04T06:34:41.547Z,24.47
2022-11-04T06:37:10.008Z,28.47
2022-11-04T06:39:37.954Z,25.53
2022-11-04T06:42:06.483Z,26.43
2022-11-04T06:44:35.106Z,25.77
2022-11-04T06:47:03.043Z,28.70
2022-11-04T06:49:32.266Z,26.13
2022-11-04T06:52:01.122Z,28.87
2022-11-04T06:54:29.045Z,25.27
2022-11-04T06:56:56.897Z,27.77
2022-11-04T06:59:25.075Z,29.90
2022-11-04T07:01:53.032Z,27.57
2022-11-04T07:04:21.015Z,28.03
2022-11-04T07:06:50.275Z,24.67
2022-11-04T07:09:18.549Z,26.40
2022-11-04T07:11:46.720Z,27.27
2022-11-04T07:14:15.448Z,26.10
2022-11-04T07:16:43.311Z,24.60
2022-11-04T07:19:11.137Z,29.53
2022-11-04T07:21:39.043Z,24.27
2022-11-04T07:24:08.611Z,24.60
2022-11-04T07:26:36.499Z,29.07
2022-11-04T07:29:06.691Z,25.58
2022-11-04T07:31:34.595Z,25.52
2022-11-04T07:34:03.115Z,26.63
2022-11-04T07:36:31.393Z,25.05
2022-11-04T07:38:59.293Z,25.40
2022-11-04T07:41:29.476Z,27.77
2022-11-04T07:43:58.874Z,24.55
2022-11-04T07:46:26.759Z,24.15
2022-11-04T07:48:57.954Z,24.65
2022-11-04T07:51:27.024Z,23.15
2022-11-04T07:53:56.039Z,23.65
2022-11-04T07:56:24.170Z,24.23
2022-11-04T07:58:53.614Z,22.77
2022-11-04T08:01:24.562Z,23.05
2022-11-04T08:03:53.069Z,25.33
2022-11-04T08:06:22.436Z,23.13
2022-11-04T08:08:54.189Z,23.90
2022-11-04T08:11:25.317Z,25.52
2022-11-04T08:13:55.594Z,23.95
2022-11-04T08:16:27.729Z,24.33
2022-11-04T08:19:01.912Z,23.85
2022-11-04T08:21:31.126Z,27.75
2022-11-04T08:23:58.990Z,23.83
2022-11-04T08:26:26.974Z,24.48
2022-11-04T08:28:56.568Z,24.42
2022-11-04T08:31:26.642Z,23.17
2022-11-04T08:33:55.234Z,25.58
2022-11-04T08:36:25.592Z,23.90
2022-11-04T08:38:54.274Z,25.55
2022-11-04T08:41:24.178Z,23.52
2022-11-04T08:43:52.082Z,24.48
2022-11-04T08:46:21.519Z,24.30
2022-11-04T08:48:50.607Z,24.83
2022-11-04T08:51:21.102Z,24.05
2022-11-04T08:53:49.101Z,23.98
2022-11-04T08:56:19.646Z,24.17
2022-11-04T08:58:48.715Z,25.30
2022-11-04T09:01:17.432Z,25.45
2022-11-04T09:03:46.916Z,24.10
2022-11-04T09:06:17.391Z,22.88
2022-11-04T09:08:45.268Z,24.25
2022-11-04T09:11:15.196Z,24.15
2022-11-04T09:13:43.623Z,24.40
2022-11-04T09:16:13.951Z,23.23
2022-11-04T09:18:41.968Z,22.90
2022-11-04T09:21:12.008Z,27.27
2022-11-04T09:23:39.949Z,24.92
2022-11-04T09:26:11.519Z,22.02
2022-11-04T09:28:40.464Z,24.85
2022-11-04T09:31:09.695Z,22.77
2022-11-04T09:33:37.632Z,23.60
2022-11-04T09:36:06.005Z,22.73
2022-11-04T09:38:35.270Z,30.98
2022-11-04T09:41:09.455Z,21.65
2022-11-04T09:43:52.628Z,24.38
2022-11-04T09:46:21.773Z,22.35
2022-11-04T09:48:54.835Z,26.70
2022-11-04T09:51:52.457Z,23.60
2022-11-04T09:54:20.102Z,24.30
2022-11-04T09:56:51.350Z,23.17
2022-11-04T09:59:25.650Z,22.08
2022-11-04T10:02:22.578Z,20.30
2022-11-04T10:05:02.642Z,21.38
2022-11-04T10:07:45.582Z,19.10
2022-11-04T10:10:22.204Z,20.77
2022-11-04T10:13:02.890Z,18.17
2022-11-04T10:15:55.448Z,18.23
2022-11-04T10:18:41.739Z,18.98
2022-11-04T10:21:22.673Z,19.08
2022-11-04T10:24:05.393Z,18.45
2022-11-04T10:26:40.741Z,18.25
2022-11-04T10:29:17.832Z,18.40
2022-11-04T10:31:48.861Z,18.33
2022-11-04T10:34:33.947Z,17.30
2022-11-04T10:37:02.146Z,16.73
2022-11-04T10:39:33.461Z,18.45
2022-11-04T10:42:03.991Z,15.88
2022-11-04T10:44:35.073Z,19.35
2022-11-04T10:47:12.898Z,17.25
2022-11-04T10:52:51.171Z,18.65
2022-11-04T10:55:32.019Z,17.13
2022-11-04T10:58:01.629Z,21.23
2022-11-04T11:00:37.485Z,15.80
2022-11-04T11:03:24.401Z,16.70
2022-11-04T11:05:53.322Z,18.27
2022-11-04T11:08:39.192Z,15.90
2022-11-04T11:11:07.874Z,17.42
2022-11-04T11:13:39.438Z,16.38
2022-11-04T11:16:11.786Z,17.08
2022-11-04T11:18:41.880Z,18.05
2022-11-04T11:21:13.334Z,14.73
2022-11-04T11:23:47.391Z,15.88
2022-11-04T11:26:17.871Z,18.25
2022-11-04T11:28:59.032Z,15.80
2022-11-04T11:31:36.328Z,13.85
2022-11-04T11:34:07.941Z,14.70
2022-11-04T11:36:39.525Z,13.43
2022-11-04T11:39:17.458Z,14.32
2022-11-04T11:41:59.204Z,17.67
2022-11-04T11:44:33.010Z,16.35
2022-11-04T11:47:04.650Z,18.80
2022-11-04T11:49:34.559Z,20.73
2022-11-04T11:52:32.895Z,16.80
2022-11-04T11:55:07.527Z,19.63
2022-11-04T12:00:47.117Z,16.50
2022-11-04T12:03:23.409Z,15.68
2022-11-04T12:06:17.915Z,13.77
2022-11-04T12:09:16.757Z,15.20
2022-11-04T12:12:01.783Z,15.38
2022-11-04T12:14:46.124Z,16.83
2022-11-04T12:17:31.693Z,13.13
2022-11-04T12:20:22.802Z,19.67
2022-11-04T12:22:59.582Z,16.10
2022-11-04T12:25:34.127Z,18.20
2022-11-04T12:28:11.986Z,20.65
2022-11-04T12:30:52.314Z,15.02
2022-11-04T12:33:33.562Z,15.75
2022-11-04T12:36:17.646Z,19.35
2022-11-04T12:39:05.829Z,15.77
2022-11-04T12:42:14.760Z,14.95
2022-11-04T12:44:37.550Z,14.60
2022-11-04T12:47:19.662Z,17.63
2022-11-04T12:50:15.727Z,15.82
2022-11-04T12:52:59.576Z,17.03
2022-11-04T12:55:44.089Z,18.47
2022-11-04T12:58:24.694Z,17.77
2022-11-04T13:01:00.764Z,15.25
2022-11-04T13:03:34.318Z,18.38
2022-11-04T13:06:07.696Z,21.52
2022-11-04T13:08:41.634Z,25.97
2022-11-04T13:11:23.665Z,15.47
2022-11-04T13:14:01.885Z,16.63
2022-11-04T13:16:32.660Z,15.20
2022-11-04T13:19:01.247Z,18.30
2022-11-04T13:21:34.898Z,20.03
2022-11-04T13:24:05.870Z,18.83
2022-11-04T13:26:34.774Z,21.33
2022-11-04T13:29:09.129Z,19.80
2022-11-04T13:31:48.230Z,18.90
2022-11-04T13:34:25.899Z,18.90
2022-11-04T13:37:05.391Z,18.73
2022-11-04T13:39:38.561Z,19.97
2022-11-04T13:42:27.335Z,21.97
2022-11-04T13:44:58.401Z,17.97
2022-11-04T13:47:30.212Z,18.83
2022-11-04T13:49:58.075Z,16.60
2022-11-04T13:52:30.419Z,22.23
2022-11-04T13:55:00.715Z,18.23
2022-11-04T13:57:30.809Z,17.20
2022-11-04T14:00:23.703Z,16.27
2022-11-04T14:02:52.967Z,17.27
2022-11-04T14:05:57.172Z,16.40
2022-11-04T14:08:26.574Z,17.53
2022-11-04T14:11:10.281Z,20.87
2022-11-04T14:14:18.090Z,20.73
2022-11-04T14:16:46.847Z,18.93
2022-11-04T14:19:57.126Z,19.97
2022-11-04T14:22:49.694Z,18.70
2022-11-04T14:25:27.559Z,18.93
2022-11-04T14:27:58.245Z,17.30
2022-11-04T14:30:47.547Z,15.87
2022-11-04T14:33:29.531Z,20.03
2022-11-04T14:36:14.653Z,19.67
2022-11-04T14:38:43.566Z,20.57
2022-11-04T14:41:23.831Z,15.53
2022-11-04T14:43:54.456Z,18.80
2022-11-04T14:46:26.559Z,18.40
2022-11-04T14:49:01.046Z,17.10
2022-11-04T14:51:31.454Z,22.60
2022-11-04T14:54:06.319Z,20.07
2022-11-04T14:56:35.590Z,16.77
2022-11-04T14:59:06.388Z,20.60
2022-11-04T15:01:37.663Z,21.73
2022-11-04T15:04:13.321Z,22.00
2022-11-04T15:06:54.763Z,19.03
2022-11-04T15:09:25.490Z,22.93
2022-11-04T15:12:20.184Z,24.93
2022-11-04T15:14:48.142Z,23.30
2022-11-04T15:17:21.528Z,20.40
2022-11-04T15:19:52.168Z,21.97
2022-11-04T15:22:20.718Z,17.90
2022-11-04T15:24:50.648Z,20.73
2022-11-04T15:27:25.942Z,23.73
2022-11-04T15:29:58.287Z,23.23
2022-11-04T15:32:27.532Z,21.93
2022-11-04T15:34:56.630Z,23.53
2022-11-04T15:37:26.200Z,21.67
2022-11-04T15:39:57.731Z,20.60
2022-11-04T15:42:37.178Z,22.93
2022-11-04T15:45:28.318Z,22.47
2022-11-04T15:48:31.474Z,23.83
2022-11-04T15:51:11.250Z,21.20
2022-11-04T15:53:49.588Z,24.33
2022-11-04T15:56:18.799Z,24.10
2022-11-04T15:58:48.254Z,20.37
2022-11-04T16:01:18.200Z,22.43
2022-11-04T16:03:52.146Z,27.93
2022-11-04T16:06:34.706Z,24.90
2022-11-04T16:09:05.442Z,26.63
2022-11-04T16:11:33.495Z,21.67
2022-11-04T16:14:23.815Z,24.60
2022-11-04T16:16:54.416Z,26.17
2022-11-04T16:19:24.059Z,21.70
2022-11-04T16:22:00.875Z,25.50
2022-11-04T16:24:31.450Z,25.33
2022-11-04T16:26:59.726Z,23.27
2022-11-04T16:29:31.798Z,24.20
2022-11-04T16:32:17.006Z,22.43
2022-11-04T16:34:45.825Z,21.43
2022-11-04T16:37:14.248Z,23.57
2022-11-04T16:39:44.603Z,24.10
2022-11-04T16:42:13.927Z,25.70
2022-11-04T16:44:48.067Z,22.30
2022-11-04T16:47:16.206Z,22.90
2022-11-04T16:49:44.062Z,22.60
2022-11-04T16:52:15.794Z,24.00
2022-11-04T16:54:43.734Z,22.40
2022-11-04T16:57:14.589Z,29.00
2022-11-04T16:59:44.383Z,19.40
2022-11-04T17:02:21.235Z,20.60
2022-11-04T17:04:49.458Z,23.47
2022-11-04T17:07:17.313Z,24.77
2022-11-04T17:09:45.155Z,25.20
2022-11-04T17:12:13.397Z,27.50
2022-11-04T17:14:41.343Z,25.70
2022-11-04T17:17:12.181Z,24.67
2022-11-04T17:19:40.276Z,25.00
2022-11-04T17:22:09.920Z,21.10
2022-11-04T17:24:38.049Z,22.97
2022-11-04T17:27:06.522Z,25.93
2022-11-04T17:29:36.462Z,24.57
2022-11-04T17:32:04.519Z,23.87
2022-11-04T17:34:33.770Z,19.37
2022-11-04T17:37:02.475Z,20.70
2022-11-04T17:39:30.350Z,21.90
2022-11-04T17:42:15.483Z,25.30
2022-11-04T17:44:43.349Z,23.53
2022-11-04T17:47:11.272Z,21.43
2022-11-04T17:49:41.499Z,29.17
2022-11-04T17:52:09.532Z,22.63
2022-11-04T17:54:37.405Z,22.83
2022-11-04T17:57:05.322Z,23.63
2022-11-04T17:59:36.769Z,24.17
2022-11-04T18:02:05.119Z,25.53
2022-11-04T18:04:33.114Z,27.50
2022-11-04T18:07:03.942Z,23.30
2022-11-04T18:09:32.793Z,25.97
2022-11-04T18:12:18.153Z,25.40
2022-11-04T18:14:46.297Z,23.10
2022-11-04T18:17:14.140Z,23.97
2022-11-04T18:19:42.473Z,20.80
2022-11-04T18:22:11.674Z,22.90
2022-11-04T18:24:40.816Z,24.80
2022-11-04T18:27:08.754Z,25.77
2022-11-04T18:29:36.660Z,24.10
2022-11-04T18:32:04.753Z,24.40
2022-11-04T18:34:33.035Z,27.50
2022-11-04T18:37:00.963Z,27.67
2022-11-04T18:39:30.177Z,30.43
2022-11-04T18:41:58.055Z,32.73
2022-11-04T18:44:26.182Z,27.83
2022-11-04T18:46:54.066Z,25.83
2022-11-04T18:49:22.241Z,26.13
2022-11-04T18:51:50.143Z,24.67
2022-11-04T18:54:17.981Z,25.43
2022-11-04T18:56:47.390Z,24.90
2022-11-04T18:59:16.346Z,24.07
2022-11-04T19:01:45.594Z,27.37
2022-11-04T19:04:14.381Z,25.70
2022-11-04T19:06:44.798Z,28.87
2022-11-04T19:12:23.852Z,22.80
2022-11-04T19:14:51.984Z,23.77
2022-11-04T19:17:19.995Z,26.40
2022-11-04T19:19:48.000Z,22.80
2022-11-04T19:22:15.878Z,23.07
2022-11-04T19:24:43.707Z,25.03
2022-11-04T19:27:13.207Z,23.17
2022-11-04T19:29:41.092Z,21.77
2022-11-04T19:32:13.782Z,21.57
2022-11-04T19:34:42.399Z,22.03
2022-11-04T19:37:10.691Z,21.53
2022-11-04T19:39:39.177Z,23.00
2022-11-04T19:42:25.285Z,22.63
2022-11-04T19:44:54.578Z,22.33
2022-11-04T19:47:22.420Z,22.37
2022-11-04T19:49:50.318Z,25.20
2022-11-04T19:52:18.627Z,26.37
2022-11-04T19:54:46.519Z,24.73
2022-11-04T19:57:14.392Z,23.37
2022-11-04T19:59:42.218Z,28.13
2022-11-04T20:02:15.238Z,26.77
2022-11-04T20:04:43.330Z,24.77
2022-11-04T20:07:11.208Z,25.90
2022-11-04T20:09:39.564Z,23.67
2022-11-04T20:12:25.003Z,21.73
2022-11-04T20:14:55.957Z,25.50
2022-11-04T20:17:25.655Z,25.93
2022-11-04T20:19:53.506Z,23.27
2022-11-04T20:22:21.406Z,25.40
2022-11-04T20:24:49.257Z,25.80
2022-11-04T20:27:17.093Z,25.40
2022-11-04T20:29:45.025Z,26.30
2022-11-04T20:32:12.846Z,25.93
2022-11-04T20:34:42.229Z,29.00
2022-11-04T20:37:11.742Z,23.97
2022-11-04T20:39:39.661Z,25.20
2022-11-04T20:42:07.699Z,23.17
2022-11-04T20:44:35.581Z,23.47
2022-11-04T20:47:03.477Z,23.00
2022-11-04T20:49:31.597Z,24.77
2022-11-04T20:52:00.941Z,24.67
2022-11-04T20:54:28.930Z,26.43
2022-11-04T20:56:56.894Z,25.90
2022-11-04T20:59:24.783Z,21.93
2022-11-04T21:01:52.730Z,25.10
2022-11-04T21:04:22.043Z,22.13
2022-11-04T21:06:51.505Z,22.30
2022-11-04T21:09:22.268Z,21.93
2022-11-04T21:11:51.322Z,20.83
2022-11-04T21:14:20.344Z,24.17
2022-11-04T21:16:48.731Z,26.43
2022-11-04T21:19:17.225Z,25.70
2022-11-04T21:21:47.145Z,23.80
2022-11-04T21:24:17.163Z,23.93
2022-11-04T21:26:46.969Z,25.80
2022-11-04T21:29:17.009Z,30.70
2022-11-04T21:31:45.694Z,30.27
2022-11-04T21:34:13.680Z,24.57
2022-11-04T21:36:41.621Z,25.47
2022-11-04T21:39:10.972Z,26.23
2022-11-04T21:41:39.270Z,28.03
2022-11-04T21:44:10.609Z,24.20
2022-11-04T21:46:38.495Z,26.93
2022-11-04T21:49:06.898Z,27.80
2022-11-04T21:51:35.426Z,28.27
2022-11-04T21:54:06.989Z,28.83
2022-11-04T21:56:35.841Z,27.10
2022-11-04T21:59:04.635Z,26.23
2022-11-04T22:01:34.311Z,26.20
2022-11-04T22:04:03.318Z,28.30
2022-11-04T22:06:35.004Z,25.67
2022-11-04T22:09:04.584Z,24.77
2022-11-04T22:11:33.929Z,28.27
2022-11-04T22:14:04.345Z,24.37
2022-11-04T22:16:35.831Z,30.63
2022-11-04T22:19:05.361Z,26.53
2022-11-04T22:21:33.830Z,27.10
2022-11-04T22:24:02.359Z,29.60
2022-11-04T22:26:32.574Z,22.97
2022-11-04T22:29:01.005Z,25.97
2022-11-04T22:31:30.756Z,26.47
2022-11-04T22:34:00.911Z,23.50
2022-11-04T22:36:29.719Z,22.13
2022-11-04T22:38:57.590Z,21.67
2022-11-04T22:41:27.437Z,26.03
2022-11-04T22:43:56.533Z,23.60
2022-11-04T22:46:26.537Z,22.43
2022-11-04T22:48:54.585Z,24.63
2022-11-04T22:51:24.619Z,22.27
2022-11-04T22:53:56.785Z,21.77
2022-11-04T22:56:27.005Z,21.63
2022-11-04T22:58:55.027Z,25.90
2022-11-04T23:01:25.776Z,23.67
2022-11-04T23:03:54.227Z,21.93
2022-11-04T23:06:23.516Z,22.10
2022-11-04T23:08:59.726Z,24.67
2022-11-04T23:11:47.108Z,24.50
2022-11-04T23:14:33.615Z,22.97
2022-11-04T23:17:19.151Z,22.03
2022-11-04T23:19:47.115Z,23.80
2022-11-04T23:22:33.590Z,23.30
2022-11-04T23:25:09.286Z,25.03
2022-11-04T23:27:57.929Z,22.90
2022-11-04T23:30:27.055Z,21.80
2022-11-04T23:32:56.600Z,24.10
2022-11-04T23:35:45.074Z,24.67
2022-11-04T23:38:14.361Z,22.97
2022-11-04T23:40:42.694Z,24.00
2022-11-04T23:43:09.988Z,24.53
2022-11-04T23:45:55.504Z,23.23
2022-11-04T23:48:40.865Z,25.43
2022-11-04T23:51:29.832Z,22.30
2022-11-04T23:54:16.589Z,25.10
2022-11-04T23:57:01.865Z,24.10
2022-11-04T23:59:47.317Z,26.53
